createdAt,value
2023-09-18T00:01:21.420Z,12.85
2023-09-18T00:03:48.081Z,11.93
2023-09-18T00:06:14.648Z,10.88
2023-09-18T00:08:41.172Z,11.75
2023-09-18T00:11:08.359Z,12.30
2023-09-18T00:13:34.872Z,11.75
2023-09-18T00:16:02.374Z,10.73
2023-09-18T00:18:28.984Z,10.80
2023-09-18T00:20:55.577Z,10.88
2023-09-18T00:23:22.230Z,9.55
2023-09-18T00:25:48.686Z,10.10
2023-09-18T00:28:15.131Z,11.00
2023-09-18T00:30:48.406Z,12.27
2023-09-18T00:33:14.907Z,13.45
2023-09-18T00:35:41.502Z,12.80
2023-09-18T00:38:08.768Z,13.65
2023-09-18T00:40:35.343Z,11.80
2023-09-18T00:43:01.862Z,12.48
2023-09-18T00:45:28.312Z,12.05
2023-09-18T00:47:55.493Z,12.73
2023-09-18T00:50:23.076Z,13.50
2023-09-18T00:52:50.233Z,13.65
2023-09-18T00:55:16.890Z,12.65
2023-09-18T00:57:44.624Z,11.52
2023-09-18T01:00:11.354Z,12.90
2023-09-18T01:02:37.972Z,11.85
2023-09-18T01:05:04.695Z,11.88
2023-09-18T01:07:31.184Z,10.77
2023-09-18T01:09:57.817Z,10.13
2023-09-18T01:12:33.733Z,9.98
2023-09-18T01:15:13.542Z,8.57
2023-09-18T01:17:41.577Z,9.23
2023-09-18T01:20:12.388Z,9.90
2023-09-18T01:22:39.053Z,10.38
2023-09-18T01:25:07.559Z,12.38
2023-09-18T01:27:34.043Z,10.55
2023-09-18T01:30:00.804Z,12.48
2023-09-18T01:32:29.276Z,12.77
2023-09-18T01:34:57.167Z,14.35
2023-09-18T01:37:28.305Z,15.32
2023-09-18T01:39:55.921Z,14.80
2023-09-18T01:42:22.993Z,13.65
2023-09-18T01:44:49.595Z,15.45
2023-09-18T01:47:17.826Z,12.82
2023-09-18T01:49:44.295Z,13.82
2023-09-18T01:52:10.956Z,14.18
2023-09-18T01:54:37.646Z,13.00
2023-09-18T01:57:04.546Z,11.27
2023-09-18T01:59:31.057Z,11.57
2023-09-18T02:01:58.051Z,11.40
2023-09-18T02:04:32.025Z,12.18
2023-09-18T02:07:13.499Z,11.73
2023-09-18T02:09:40.135Z,12.40
2023-09-18T02:12:07.099Z,13.18
2023-09-18T02:14:35.354Z,13.90
2023-09-18T02:17:02.092Z,11.80
2023-09-18T02:19:28.532Z,17.75
2023-09-18T02:21:57.050Z,14.35
2023-09-18T02:24:24.746Z,12.40
2023-09-18T02:26:51.273Z,13.63
2023-09-18T02:29:17.878Z,12.82
2023-09-18T02:31:44.500Z,11.88
2023-09-18T02:34:10.986Z,13.23
2023-09-18T02:36:37.470Z,12.80
2023-09-18T02:39:04.224Z,11.65
2023-09-18T02:41:30.806Z,10.43
2023-09-18T02:43:57.321Z,11.70
2023-09-18T02:46:24.077Z,12.57
2023-09-18T02:48:51.118Z,13.45
2023-09-18T02:51:17.827Z,11.60
2023-09-18T02:53:44.355Z,11.63
2023-09-18T02:56:10.960Z,11.60
2023-09-18T02:58:37.443Z,11.30
2023-09-18T03:01:06.380Z,11.60
2023-09-18T03:03:33.068Z,11.77
2023-09-18T03:06:06.169Z,10.45
2023-09-18T03:10:59.720Z,11.02
2023-09-18T03:13:27.631Z,11.05
2023-09-18T03:15:54.086Z,19.60
2023-09-18T03:18:20.615Z,16.27
2023-09-18T03:20:47.258Z,15.90
2023-09-18T03:23:13.693Z,14.13
2023-09-18T03:25:50.166Z,11.60
2023-09-18T03:28:19.172Z,10.23
2023-09-18T03:30:46.258Z,11.05
2023-09-18T03:33:12.937Z,10.45
2023-09-18T03:35:46.810Z,13.40
2023-09-18T03:38:13.238Z,9.93
2023-09-18T03:40:39.670Z,10.75
2023-09-18T03:43:06.166Z,10.10
2023-09-18T03:45:32.759Z,11.63
2023-09-18T03:47:59.272Z,9.73
2023-09-18T03:50:25.777Z,13.68
2023-09-18T03:52:52.300Z,8.02
2023-09-18T03:55:18.774Z,9.70
2023-09-18T03:57:47.050Z,12.05
2023-09-18T04:00:13.940Z,17.55
2023-09-18T04:02:40.517Z,18.35
2023-09-18T04:05:08.244Z,16.55
2023-09-18T04:07:34.938Z,14.65
2023-09-18T04:10:01.454Z,13.63
2023-09-18T04:12:27.980Z,12.73
2023-09-18T04:14:54.490Z,11.65
2023-09-18T04:17:22.504Z,11.32
2023-09-18T04:19:49.515Z,14.40
2023-09-18T04:22:16.326Z,14.38
2023-09-18T04:24:42.836Z,15.77
2023-09-18T04:27:09.317Z,14.98
2023-09-18T04:29:36.947Z,17.77
2023-09-18T04:32:05.351Z,16.45
2023-09-18T04:34:32.178Z,13.65
2023-09-18T04:36:58.648Z,14.80
2023-09-18T04:39:25.099Z,14.32
2023-09-18T04:41:51.515Z,16.35
2023-09-18T04:44:18.793Z,17.75
2023-09-18T04:46:45.402Z,15.13
2023-09-18T04:49:12.348Z,13.57
2023-09-18T04:51:42.748Z,11.40
2023-09-18T04:54:09.246Z,11.60
2023-09-18T04:56:35.796Z,12.27
2023-09-18T04:59:02.319Z,11.65
2023-09-18T05:01:28.839Z,10.68
2023-09-18T05:03:55.418Z,12.85
2023-09-18T05:06:22.180Z,11.63
2023-09-18T05:08:48.923Z,9.88
2023-09-18T05:11:15.697Z,11.38
2023-09-18T05:13:42.266Z,11.25
2023-09-18T05:16:08.777Z,11.63
2023-09-18T05:18:35.231Z,12.02
2023-09-18T05:21:03.027Z,15.20
2023-09-18T05:23:30.013Z,16.08
2023-09-18T05:25:56.498Z,15.23
2023-09-18T05:28:22.945Z,14.77
2023-09-18T05:30:49.489Z,15.60
2023-09-18T05:33:16.064Z,16.63
2023-09-18T05:35:46.232Z,16.48
2023-09-18T05:38:14.620Z,12.30
2023-09-18T05:40:41.623Z,8.88
2023-09-18T05:43:09.028Z,8.90
2023-09-18T05:45:35.494Z,8.07
2023-09-18T05:48:06.236Z,8.93
2023-09-18T05:50:33.367Z,8.50
2023-09-18T05:53:05.137Z,8.40
2023-09-18T05:55:32.355Z,9.52
2023-09-18T05:57:59.117Z,9.52
2023-09-18T06:00:25.717Z,10.38
2023-09-18T06:02:52.543Z,11.15
2023-09-18T06:05:22.348Z,11.68
2023-09-18T06:07:51.366Z,11.40
2023-09-18T06:10:18.839Z,11.45
2023-09-18T06:12:46.241Z,11.32
2023-09-18T06:15:13.488Z,11.25
2023-09-18T06:17:41.180Z,9.30
2023-09-18T06:20:11.889Z,9.77
2023-09-18T06:22:39.779Z,10.27
2023-09-18T06:25:06.876Z,11.70
2023-09-18T06:27:37.818Z,11.00
2023-09-18T06:30:05.169Z,10.63
2023-09-18T06:32:31.900Z,9.25
2023-09-18T06:35:01.420Z,10.32
2023-09-18T06:37:28.038Z,11.02
2023-09-18T06:39:54.634Z,10.55
2023-09-18T06:42:21.545Z,10.18
2023-09-18T06:44:48.058Z,8.73
2023-09-18T06:47:15.871Z,8.98
2023-09-18T06:49:42.889Z,10.55
2023-09-18T06:52:10.432Z,10.93
2023-09-18T06:54:37.492Z,10.82
2023-09-18T06:57:04.452Z,11.25
2023-09-18T06:59:32.163Z,11.32
2023-09-18T07:01:59.162Z,9.80
2023-09-18T07:04:25.821Z,9.52
2023-09-18T07:06:54.712Z,10.40
2023-09-18T07:09:24.645Z,10.98
2023-09-18T07:11:51.946Z,11.45
2023-09-18T07:14:18.786Z,9.95
2023-09-18T07:16:45.339Z,10.52
2023-09-18T07:19:13.112Z,10.60
2023-09-18T07:21:41.554Z,10.23
2023-09-18T07:24:08.735Z,9.65
2023-09-18T07:26:35.217Z,10.50
2023-09-18T07:29:03.030Z,10.05
2023-09-18T07:31:29.683Z,10.07
2023-09-18T07:33:56.427Z,10.18
2023-09-18T07:36:22.942Z,10.73
2023-09-18T07:38:49.392Z,10.23
2023-09-18T07:41:16.729Z,10.95
2023-09-18T07:43:43.291Z,11.35
2023-09-18T07:46:09.751Z,10.90
2023-09-18T07:48:36.529Z,10.68
2023-09-18T07:51:03.057Z,11.02
2023-09-18T07:53:29.695Z,9.65
2023-09-18T07:55:57.358Z,9.25
2023-09-18T07:58:23.948Z,9.32
2023-09-18T08:00:55.080Z,8.77
2023-09-18T08:03:23.390Z,10.02
2023-09-18T08:05:54.823Z,9.15
2023-09-18T08:08:21.739Z,10.27
2023-09-18T08:10:48.430Z,9.27
2023-09-18T08:13:15.186Z,10.25
2023-09-18T08:15:41.650Z,9.43
2023-09-18T08:18:08.301Z,9.43
2023-09-18T08:20:34.912Z,8.75
2023-09-18T08:23:06.279Z,9.80
2023-09-18T08:25:33.328Z,8.55
2023-09-18T08:27:59.784Z,8.85
2023-09-18T08:30:26.767Z,9.35
2023-09-18T08:32:53.367Z,8.25
2023-09-18T08:35:19.925Z,7.50
2023-09-18T08:37:46.417Z,8.02
2023-09-18T08:40:14.886Z,7.47
2023-09-18T08:42:46.483Z,8.02
2023-09-18T08:45:15.799Z,6.35
2023-09-18T08:47:42.421Z,7.70
2023-09-18T08:50:12.427Z,6.80
2023-09-18T08:52:39.060Z,7.00
2023-09-18T08:55:07.003Z,7.28
2023-09-18T08:57:36.903Z,6.38
2023-09-18T09:00:07.872Z,6.82
2023-09-18T09:02:34.912Z,6.93
2023-09-18T09:05:01.496Z,6.07
2023-09-18T09:07:29.935Z,6.35
2023-09-18T09:09:56.618Z,6.38
2023-09-18T09:12:42.819Z,6.40
2023-09-18T09:15:10.699Z,6.63
2023-09-18T09:17:37.515Z,7.28
2023-09-18T09:20:13.991Z,7.00
2023-09-18T09:22:44.475Z,6.40
2023-09-18T09:25:32.440Z,7.10
2023-09-18T09:27:59.347Z,6.90
2023-09-18T09:30:27.183Z,6.93
2023-09-18T09:32:54.651Z,7.80
2023-09-18T09:35:24.947Z,7.15
2023-09-18T09:37:54.291Z,6.70
2023-09-18T09:40:21.487Z,6.50
2023-09-18T09:42:48.156Z,6.28
2023-09-18T09:45:18.756Z,6.30
2023-09-18T09:47:45.529Z,6.85
2023-09-18T09:50:12.573Z,6.88
2023-09-18T09:52:50.041Z,6.22
2023-09-18T09:55:19.980Z,7.97
2023-09-18T09:57:50.398Z,6.80
2023-09-18T10:00:27.669Z,7.78
2023-09-18T10:02:59.671Z,6.40
2023-09-18T10:05:30.295Z,6.85
2023-09-18T10:08:00.935Z,7.35
2023-09-18T10:10:30.456Z,7.07
2023-09-18T10:12:58.397Z,6.68
2023-09-18T10:15:25.996Z,7.63
2023-09-18T10:17:55.957Z,8.68
2023-09-18T10:20:27.984Z,7.63
2023-09-18T10:22:57.313Z,7.37
2023-09-18T10:25:30.218Z,8.02
2023-09-18T10:30:27.991Z,6.43
2023-09-18T10:32:54.855Z,7.10
2023-09-18T10:35:21.979Z,6.80
2023-09-18T10:37:49.599Z,7.55
2023-09-18T10:40:17.009Z,6.03
2023-09-18T10:42:43.526Z,8.18
2023-09-18T10:45:11.637Z,8.32
2023-09-18T10:47:39.466Z,7.50
2023-09-18T10:50:08.457Z,7.65
2023-09-18T10:52:45.337Z,7.45
2023-09-18T10:55:15.099Z,7.13
2023-09-18T10:57:52.398Z,6.95
2023-09-18T11:00:23.299Z,7.18
2023-09-18T11:02:53.635Z,6.70
2023-09-18T11:05:35.891Z,7.13
2023-09-18T11:08:21.106Z,7.67
2023-09-18T11:10:57.814Z,6.47
2023-09-18T11:13:31.294Z,5.97
2023-09-18T11:16:17.002Z,5.90
2023-09-18T11:18:44.306Z,6.00
2023-09-18T11:21:11.498Z,5.95
2023-09-18T11:23:47.917Z,7.03
2023-09-18T11:26:16.520Z,7.03
2023-09-18T11:28:44.112Z,5.93
2023-09-18T11:31:12.042Z,6.05
2023-09-18T11:33:39.583Z,6.07
2023-09-18T11:36:09.457Z,5.95
2023-09-18T11:38:37.128Z,6.45
2023-09-18T11:41:23.836Z,6.15
2023-09-18T11:43:50.264Z,6.28
2023-09-18T11:46:19.341Z,6.68
2023-09-18T11:48:46.661Z,7.22
2023-09-18T11:51:13.474Z,6.45
2023-09-18T11:53:41.657Z,6.15
2023-09-18T11:56:15.916Z,6.78
2023-09-18T11:58:49.657Z,6.53
2023-09-18T12:01:19.202Z,6.68
2023-09-18T12:03:46.245Z,6.68
2023-09-18T12:06:16.932Z,6.13
2023-09-18T12:08:43.546Z,6.75
2023-09-18T12:11:10.057Z,6.07
2023-09-18T12:13:36.793Z,6.47
2023-09-18T12:16:06.250Z,6.55
2023-09-18T12:18:36.365Z,6.07
2023-09-18T12:21:05.741Z,6.70
2023-09-18T12:23:40.041Z,6.72
2023-09-18T12:26:10.059Z,6.50
2023-09-18T12:28:36.802Z,6.38
2023-09-18T12:31:07.199Z,6.10
2023-09-18T12:33:38.005Z,6.57
2023-09-18T12:36:05.973Z,6.30
2023-09-18T12:38:33.124Z,6.63
2023-09-18T12:41:07.141Z,7.07
2023-09-18T12:43:38.281Z,6.80
2023-09-18T12:46:06.001Z,6.45
2023-09-18T12:48:33.014Z,6.75
2023-09-18T12:51:06.619Z,6.75
2023-09-18T12:53:33.571Z,6.32
2023-09-18T12:56:10.981Z,6.20
2023-09-18T12:58:48.616Z,5.85
2023-09-18T13:01:24.345Z,7.38
2023-09-18T13:03:51.226Z,7.32
2023-09-18T13:06:18.682Z,6.43
2023-09-18T13:08:45.465Z,6.40
2023-09-18T13:11:18.098Z,7.43
2023-09-18T13:13:47.635Z,7.40
2023-09-18T13:16:15.894Z,7.32
2023-09-18T13:18:42.584Z,6.72
2023-09-18T13:21:13.021Z,6.68
2023-09-18T13:23:39.725Z,6.75
2023-09-18T13:26:07.346Z,6.93
2023-09-18T13:28:37.522Z,6.65
2023-09-18T13:31:08.025Z,6.95
2023-09-18T13:33:39.643Z,6.70
2023-09-18T13:36:07.559Z,7.07
2023-09-18T13:38:34.330Z,6.75
2023-09-18T13:41:01.023Z,6.53
2023-09-18T13:43:28.571Z,7.05
2023-09-18T13:45:56.414Z,7.40
2023-09-18T13:48:23.824Z,6.38
2023-09-18T13:50:52.677Z,6.82
2023-09-18T13:53:19.405Z,7.05
2023-09-18T13:55:45.908Z,6.93
2023-09-18T13:58:12.534Z,6.70
2023-09-18T14:00:39.059Z,6.35
2023-09-18T14:03:05.604Z,7.28
2023-09-18T14:05:34.085Z,7.35
2023-09-18T14:08:04.246Z,6.35
2023-09-18T14:10:30.758Z,6.55
2023-09-18T14:12:58.842Z,7.40
2023-09-18T14:15:25.390Z,6.63
2023-09-18T14:17:51.947Z,6.57
2023-09-18T14:20:20.398Z,6.13
2023-09-18T14:22:50.838Z,6.40
2023-09-18T14:25:17.878Z,6.10
2023-09-18T14:27:44.390Z,6.63
2023-09-18T14:30:11.168Z,6.60
2023-09-18T14:32:38.310Z,6.07
2023-09-18T14:35:06.410Z,6.80
2023-09-18T14:37:33.109Z,6.93
2023-09-18T14:39:59.625Z,5.88
2023-09-18T14:42:26.064Z,7.10
2023-09-18T14:44:52.993Z,6.72
2023-09-18T14:47:24.322Z,7.32
2023-09-18T14:49:51.353Z,7.32
2023-09-18T14:52:19.861Z,7.53
2023-09-18T14:54:46.542Z,7.18
2023-09-18T14:57:13.029Z,6.97
2023-09-18T14:59:42.557Z,6.57
2023-09-18T15:02:09.568Z,6.45
2023-09-18T15:04:36.548Z,5.82
2023-09-18T15:07:03.730Z,7.50
2023-09-18T15:09:30.345Z,6.40
2023-09-18T15:11:56.882Z,6.93
2023-09-18T15:14:23.372Z,6.55
2023-09-18T15:16:50.016Z,6.68
2023-09-18T15:19:20.435Z,6.88
2023-09-18T15:21:47.251Z,6.75
2023-09-18T15:24:13.878Z,6.80
2023-09-18T15:26:40.438Z,7.00
2023-09-18T15:29:09.291Z,7.38
2023-09-18T15:31:35.828Z,7.25
2023-09-18T15:34:02.444Z,7.72
2023-09-18T15:36:28.971Z,7.03
2023-09-18T15:38:56.013Z,7.25
2023-09-18T15:41:22.561Z,7.82
2023-09-18T15:43:50.354Z,9.68
2023-09-18T15:46:18.760Z,9.10
2023-09-18T15:48:46.022Z,7.90
2023-09-18T15:51:12.575Z,6.90
2023-09-18T15:53:39.418Z,7.07
2023-09-18T15:56:06.768Z,7.38
2023-09-18T15:58:33.211Z,7.35
2023-09-18T16:01:02.239Z,7.13
2023-09-18T16:03:28.893Z,7.68
2023-09-18T16:05:56.647Z,7.15
2023-09-18T16:08:23.395Z,9.10
2023-09-18T16:10:50.053Z,7.35
2023-09-18T16:13:17.626Z,8.38
2023-09-18T16:15:46.899Z,7.30
2023-09-18T16:18:13.666Z,7.78
2023-09-18T16:20:40.982Z,9.05
2023-09-18T16:23:07.489Z,8.13
2023-09-18T16:25:33.930Z,8.35
2023-09-18T16:28:02.080Z,8.43
2023-09-18T16:30:29.374Z,8.07
2023-09-18T16:33:01.998Z,8.48
2023-09-18T16:35:29.110Z,8.98
2023-09-18T16:37:56.531Z,8.27
2023-09-18T16:40:23.037Z,9.35
2023-09-18T16:42:49.637Z,8.48
2023-09-18T16:45:16.202Z,8.70
2023-09-18T16:47:42.730Z,8.50
2023-09-18T16:50:09.703Z,9.40
2023-09-18T16:52:37.100Z,8.77
2023-09-18T16:55:05.960Z,8.35
2023-09-18T16:57:33.307Z,9.10
2023-09-18T17:00:00.958Z,9.15
2023-09-18T17:02:27.860Z,9.30
2023-09-18T17:04:55.189Z,9.43
2023-09-18T17:07:22.017Z,9.48
2023-09-18T17:09:48.458Z,9.18
2023-09-18T17:12:15.207Z,8.68
2023-09-18T17:14:42.831Z,8.95
2023-09-18T17:17:09.319Z,8.10
2023-09-18T17:19:35.871Z,9.65
2023-09-18T17:22:05.079Z,9.88
2023-09-18T17:24:35.488Z,10.65
2023-09-18T17:27:02.009Z,10.30
2023-09-18T17:29:28.542Z,10.15
2023-09-18T17:31:55.024Z,10.57
2023-09-18T17:34:21.469Z,10.32
2023-09-18T17:36:48.165Z,11.40
2023-09-18T17:39:14.612Z,9.35
2023-09-18T17:41:41.068Z,10.13
2023-09-18T17:44:07.745Z,9.77
2023-09-18T17:46:34.562Z,9.73
2023-09-18T17:49:00.962Z,9.70
2023-09-18T17:51:28.585Z,9.63
2023-09-18T17:53:55.498Z,9.82
2023-09-18T17:56:22.019Z,9.82
2023-09-18T17:58:48.540Z,9.50
2023-09-18T18:01:15.363Z,10.85
2023-09-18T18:03:44.824Z,9.07
2023-09-18T18:06:11.906Z,10.68
2023-09-18T18:08:38.448Z,9.80
2023-09-18T18:11:05.682Z,9.95
2023-09-18T18:13:32.884Z,11.25
2023-09-18T18:15:59.579Z,10.30
2023-09-18T18:18:26.792Z,11.25
2023-09-18T18:20:56.367Z,10.85
2023-09-18T18:23:23.351Z,11.55
2023-09-18T18:25:55.916Z,11.00
2023-09-18T18:28:22.735Z,9.95
2023-09-18T18:30:50.356Z,11.38
2023-09-18T18:33:17.869Z,9.20
2023-09-18T18:35:45.292Z,9.82
2023-09-18T18:38:12.140Z,10.38
2023-09-18T18:40:42.268Z,10.20
2023-09-18T18:43:08.782Z,10.32
2023-09-18T18:45:35.307Z,8.98
2023-09-18T18:48:03.148Z,9.00
2023-09-18T18:50:30.208Z,9.93
2023-09-18T18:52:56.704Z,11.68
2023-09-18T18:55:24.444Z,11.30
2023-09-18T18:57:52.863Z,11.27
2023-09-18T19:00:19.423Z,11.00
2023-09-18T19:02:48.515Z,11.07
2023-09-18T19:05:15.352Z,12.07
2023-09-18T19:07:42.781Z,12.00
2023-09-18T19:10:09.421Z,11.15
2023-09-18T19:12:42.592Z,11.93
2023-09-18T19:15:10.848Z,9.90
2023-09-18T19:17:37.404Z,11.75
2023-09-18T19:20:05.467Z,11.27
2023-09-18T19:22:34.072Z,11.75
2023-09-18T19:25:01.711Z,12.80
2023-09-18T19:27:28.139Z,10.18
2023-09-18T19:29:54.633Z,12.15
2023-09-18T19:32:21.418Z,12.32
2023-09-18T19:34:48.136Z,12.23
2023-09-18T19:37:14.810Z,11.10
2023-09-18T19:39:41.356Z,11.65
2023-09-18T19:42:08.983Z,13.30
2023-09-18T19:44:45.259Z,12.60
2023-09-18T19:47:12.381Z,11.45
2023-09-18T19:49:38.878Z,12.63
2023-09-18T19:52:06.374Z,13.32
2023-09-18T19:54:33.457Z,11.82
2023-09-18T19:57:00.763Z,11.80
2023-09-18T19:59:27.389Z,11.25
2023-09-18T20:01:54.956Z,11.55
2023-09-18T20:04:21.995Z,12.57
2023-09-18T20:06:48.706Z,12.07
2023-09-18T20:09:15.332Z,10.10
2023-09-18T20:11:41.936Z,11.25
2023-09-18T20:14:20.666Z,10.30
2023-09-18T20:19:18.437Z,10.55
2023-09-18T20:21:47.782Z,10.73
2023-09-18T20:24:14.345Z,10.73
2023-09-18T20:26:42.358Z,10.18
2023-09-18T20:29:08.846Z,11.82
2023-09-18T20:31:35.391Z,11.20
2023-09-18T20:34:01.944Z,11.15
2023-09-18T20:36:28.376Z,10.77
2023-09-18T20:38:55.121Z,10.30
2023-09-18T20:41:21.681Z,10.80
2023-09-18T20:43:48.222Z,11.35
2023-09-18T20:46:14.740Z,11.35
2023-09-18T20:48:41.593Z,11.15
2023-09-18T20:51:08.278Z,11.35
2023-09-18T20:53:35.785Z,11.23
2023-09-18T20:56:02.449Z,10.93
2023-09-18T20:58:28.875Z,11.60
2023-09-18T21:00:55.362Z,10.95
2023-09-18T21:03:21.917Z,10.70
2023-09-18T21:05:55.527Z,11.13
2023-09-18T21:08:22.843Z,10.50
2023-09-18T21:10:49.960Z,9.55
2023-09-18T21:13:16.813Z,11.23
2023-09-18T21:15:43.252Z,11.23
2023-09-18T21:18:09.750Z,10.85
2023-09-18T21:20:36.336Z,10.25
2023-09-18T21:23:04.261Z,9.63
2023-09-18T21:25:32.055Z,9.82
2023-09-18T21:28:01.336Z,9.05
2023-09-18T21:30:31.199Z,9.05
2023-09-18T21:32:58.486Z,9.38
2023-09-18T21:35:29.011Z,9.90
2023-09-18T21:37:57.004Z,8.93
2023-09-18T21:40:24.412Z,9.13
2023-09-18T21:42:50.859Z,10.00
2023-09-18T21:45:17.374Z,9.70
2023-09-18T21:47:43.941Z,10.07
2023-09-18T21:50:11.753Z,9.43
2023-09-18T21:52:38.344Z,9.45
2023-09-18T21:55:05.059Z,8.90
2023-09-18T21:57:31.649Z,10.40
2023-09-18T21:59:58.139Z,10.27
2023-09-18T22:02:24.710Z,10.82
2023-09-18T22:04:52.082Z,11.57
2023-09-18T22:07:18.526Z,10.85
2023-09-18T22:09:49.558Z,11.15
2023-09-18T22:12:16.088Z,11.05
2023-09-18T22:14:42.663Z,10.52
2023-09-18T22:17:09.316Z,10.40
2023-09-18T22:19:35.763Z,11.55
2023-09-18T22:22:03.210Z,11.10
2023-09-18T22:24:29.701Z,10.23
2023-09-18T22:26:58.243Z,9.90
2023-09-18T22:29:25.566Z,9.98
2023-09-18T22:31:54.811Z,9.43
2023-09-18T22:34:21.858Z,10.23
2023-09-18T22:36:51.557Z,10.25
2023-09-18T22:39:33.705Z,9.20
2023-09-18T22:42:01.922Z,9.82
2023-09-18T22:44:47.466Z,9.65
2023-09-18T22:50:21.009Z,9.88
2023-09-18T22:52:48.249Z,9.98
2023-09-18T22:55:15.578Z,9.70
2023-09-18T22:57:45.066Z,11.02
2023-09-18T23:00:12.226Z,10.48
2023-09-18T23:02:43.785Z,10.40
2023-09-18T23:05:12.359Z,10.48
2023-09-18T23:07:41.554Z,10.18
2023-09-18T23:10:11.649Z,9.60
2023-09-18T23:12:39.881Z,10.27
2023-09-18T23:15:08.407Z,10.45
2023-09-18T23:17:35.822Z,10.00
2023-09-18T23:20:09.087Z,10.35
2023-09-18T23:22:38.414Z,9.50
2023-09-18T23:25:08.830Z,9.10
2023-09-18T23:27:38.173Z,9.98
2023-09-18T23:30:07.686Z,9.27
2023-09-18T23:32:34.162Z,9.82
2023-09-18T23:35:01.403Z,9.32
2023-09-18T23:37:30.588Z,10.48
2023-09-18T23:39:59.646Z,9.45
2023-09-18T23:42:26.376Z,9.80
2023-09-18T23:44:52.870Z,10.00
2023-09-18T23:47:21.006Z,10.27
2023-09-18T23:49:48.058Z,8.43
2023-09-18T23:52:14.487Z,8.35
2023-09-18T23:54:42.497Z,9.45
2023-09-18T23:57:08.971Z,8.93
2023-09-18T23:59:38.372Z,8.45
